Página principal
METAR-TAF:

METAR-TAF

Aeroportos :

Kimble County Airport

Junction, Texas, Estados Unidos

latitude: 30-30-39N, longitude: 099-45-59W, altura: 527 m

Observação actual do tempo

O boletim foi feito há 44 minutos, às 13:51 UTC
Vento 6 kt de oes-noroeste
Temperatura 11°C
Humidade 30%
Pressão 1016 hPa
Visibilidade: 16.1 km
Céu limpo

METAR: KJCT 231351Z AUTO 29006KT 10SM CLR 11/M06 A2999 RMK AO2 SLP132 T01061056

Hora: 08:35 (14:35 UTC)

Previsão

O boletim foi feito há 3 horas e 7 minutos, às 11:28 UTC
Previsão válida de 23 às 12 UTC a 24 às 12 UTC
Vento 13 kt de oes-noroeste com rajadas de 23 kt
Visibilidade: 10 km
Nuvens dispersasa uma altura de 4000 ft
Nuvens fragmentadasa uma altura de 25000 ft
A partir de 23 às 1600 UTC
Vento 18 kt de oeste com rajadas de 28 kt
Visibilidade: 10 km
Céu limpo
A partir de 24 às 0000 UTC
Vento 5 kt de noroeste
Visibilidade: 10 km
Céu limpo

TAF: KJCT 231128Z 2312/2412 30013G23KT P6SM SCT040 BKN250 FM231600 27018G28KT P6SM SKC FM240000 32005KT P6SM SKC

Observações e previsões do tempo de mais de 4000 aeroportos (mensagens METAR e TAF).

As estações disponíveis são os pontos amarelos e vermelhos sobre o mapa.

Mova o rato sobre o mapa para ver o nome da estação.

Depois clique no ponto para visualizar as observações e previsões meteorológicas.

Para alterar o mapa : clique nos botões verdes com uma cruz preta para aumentar o zoom; no botão verde com uma pitada de zoom; ou nas setas verdes para mapas adjacentes.


METAR-TAF: